Griffiss International Airport Rome US
ICAO: KRME
IATA: RME
Category: Medium
Scheduled Services: No

Elevation: 504 ft
TransAlt. 18000 ft.

Airport Communications:
APP/DEP:120.925
CTAF:125.6
UNICOM:122.7

KRME Zoom In..

If you have problems with the map follow the link
https://www.worldairports.se/pages/airport.php?
ICAO=KRME

Runways:

(A) RW 15 length 11820 ft width 200 ft
ILS 109.10 / hdg 147

(B) RW 33 length 11820 ft width 200 ft
ILS 110.10 / hdg 327

Location; KRME
Day. 14 / Time. 04.53 Zulu
* Altimeter: 29.96
* Temperature: 03° c. 37.4°f.
* Wind from: 130° Speed 07 kn.
Dewpoint: 03° c.
Visibility: 6 Statute Miles.
Clouds: Scattered 1000 ft.
Clouds: Broken 3800 ft.
Clouds: Overcast 5000 ft.
Conditions: Mist.

KRME 140453Z AUTO 13007KT 6SM BR SCT010 BKN038 OVC050 03/03 A2996 RMK AO2 SLP148 T00280028 400281044


Wind From 130°
Speed 07 kn.

 
 
jpsmedia worldairports.se 2019   terms of use